createdAt,value
2022-12-31T00:00:02.364Z,0.30
2022-12-31T00:02:31.447Z,0.40
2022-12-31T00:04:57.816Z,0.60
2022-12-31T00:07:24.179Z,0.50
2022-12-31T00:09:50.520Z,0.57
2022-12-31T00:12:16.827Z,0.40
2022-12-31T00:14:43.176Z,0.50
2022-12-31T00:17:09.637Z,0.40
2022-12-31T00:19:36.042Z,0.47
2022-12-31T00:22:02.355Z,0.30
2022-12-31T00:24:30.933Z,0.40
2022-12-31T00:26:57.475Z,0.30
2022-12-31T00:29:23.919Z,0.70
2022-12-31T00:31:50.222Z,0.43
2022-12-31T00:34:16.550Z,0.50
2022-12-31T00:36:43.043Z,0.60
2022-12-31T00:39:10.259Z,0.40
2022-12-31T00:41:36.942Z,0.50
2022-12-31T00:44:03.314Z,0.40
2022-12-31T00:46:29.916Z,0.65
2022-12-31T00:48:56.318Z,0.45
2022-12-31T00:51:27.144Z,0.50
2022-12-31T00:53:54.013Z,0.30
2022-12-31T00:56:25.421Z,0.40
2022-12-31T00:58:52.187Z,0.20
2022-12-31T01:01:27.890Z,0.40
2022-12-31T01:03:58.373Z,0.30
2022-12-31T01:06:24.990Z,0.40
2022-12-31T01:08:52.224Z,0.40
2022-12-31T01:11:19.346Z,0.38
2022-12-31T01:14:03.905Z,0.20
2022-12-31T01:16:53.566Z,0.28
2022-12-31T01:19:28.225Z,0.20
2022-12-31T01:21:55.884Z,0.40
2022-12-31T01:24:22.377Z,0.30
2022-12-31T01:26:49.069Z,0.28
2022-12-31T01:29:16.904Z,0.30
2022-12-31T01:31:43.308Z,0.30
2022-12-31T01:34:09.742Z,0.20
2022-12-31T01:36:37.144Z,0.22
2022-12-31T01:39:05.844Z,0.20
2022-12-31T01:41:35.764Z,0.20
2022-12-31T01:44:11.183Z,0.20
2022-12-31T01:47:02.556Z,0.17
2022-12-31T01:52:22.617Z,0.47
2022-12-31T01:55:07.861Z,0.50
2022-12-31T01:57:36.893Z,0.20
2022-12-31T02:00:05.631Z,0.20
2022-12-31T02:02:32.878Z,0.20
2022-12-31T02:05:02.069Z,0.20
2022-12-31T02:07:28.733Z,0.20
2022-12-31T02:09:55.166Z,0.43
2022-12-31T02:12:21.652Z,0.20
2022-12-31T02:14:51.579Z,0.30
2022-12-31T02:17:42.408Z,0.10
2022-12-31T02:20:29.587Z,0.20
2022-12-31T02:23:14.763Z,0.17
2022-12-31T02:25:56.237Z,0.30
2022-12-31T02:31:07.156Z,0.30
2022-12-31T02:33:42.612Z,0.35
2022-12-31T02:36:15.014Z,0.20
2022-12-31T02:38:44.482Z,0.20
2022-12-31T02:41:35.613Z,0.25
2022-12-31T02:44:03.125Z,0.20
2022-12-31T02:46:44.757Z,0.22
2022-12-31T02:49:20.736Z,0.20
2022-12-31T02:52:06.399Z,0.28
2022-12-31T02:55:03.073Z,0.30
2022-12-31T02:57:40.106Z,0.28
2022-12-31T03:00:29.358Z,0.22
2022-12-31T03:02:57.888Z,0.30
2022-12-31T03:05:29.269Z,0.30
2022-12-31T03:07:55.821Z,0.20
2022-12-31T03:10:22.253Z,0.30
2022-12-31T03:12:49.000Z,0.20
2022-12-31T03:15:35.701Z,0.95
2022-12-31T03:18:12.707Z,0.30
2022-12-31T03:21:06.855Z,0.30
2022-12-31T03:23:36.524Z,0.30
2022-12-31T03:26:09.985Z,0.40
2022-12-31T03:28:40.779Z,0.30
2022-12-31T03:31:07.557Z,0.52
2022-12-31T03:33:37.125Z,0.52
2022-12-31T03:36:12.323Z,0.57
2022-12-31T03:38:38.882Z,0.50
2022-12-31T03:41:05.640Z,0.40
2022-12-31T03:43:32.130Z,0.22
2022-12-31T03:45:59.712Z,0.43
2022-12-31T03:48:26.157Z,0.50
2022-12-31T03:50:52.607Z,0.32
2022-12-31T03:53:19.432Z,0.30
2022-12-31T03:55:49.871Z,0.20
2022-12-31T03:58:16.175Z,0.40
2022-12-31T04:00:45.233Z,0.55
2022-12-31T04:03:11.591Z,0.40
2022-12-31T04:05:37.996Z,0.40
2022-12-31T04:08:04.827Z,0.30
2022-12-31T04:10:31.132Z,0.30
2022-12-31T04:13:00.125Z,0.40
2022-12-31T04:15:26.460Z,0.60
2022-12-31T04:17:52.764Z,0.50
2022-12-31T04:20:19.410Z,0.40
2022-12-31T04:22:45.710Z,0.63
2022-12-31T04:25:12.806Z,0.65
2022-12-31T04:27:40.843Z,0.40
2022-12-31T04:30:09.612Z,0.73
2022-12-31T04:32:35.991Z,0.40
2022-12-31T04:35:02.310Z,0.50
2022-12-31T04:37:28.740Z,0.70
2022-12-31T04:39:57.937Z,0.60
2022-12-31T04:42:28.323Z,0.40
2022-12-31T04:44:54.625Z,0.70
2022-12-31T04:47:23.843Z,0.60
2022-12-31T04:49:50.548Z,0.40
2022-12-31T04:52:16.963Z,0.50
2022-12-31T04:54:43.255Z,0.75
2022-12-31T04:57:09.701Z,0.60
2022-12-31T04:59:36.105Z,0.70
2022-12-31T05:02:02.585Z,0.80
2022-12-31T05:04:29.245Z,0.50
2022-12-31T05:06:55.559Z,0.50
2022-12-31T05:09:23.959Z,0.55
2022-12-31T05:11:50.314Z,0.40
2022-12-31T05:14:17.124Z,0.50
2022-12-31T05:16:43.471Z,0.70
2022-12-31T05:19:09.872Z,0.63
2022-12-31T05:21:36.667Z,0.98
2022-12-31T05:24:03.088Z,0.70
2022-12-31T05:26:29.436Z,0.80
2022-12-31T05:28:56.458Z,0.70
2022-12-31T05:31:22.955Z,0.75
2022-12-31T05:33:49.272Z,0.70
2022-12-31T05:36:15.722Z,0.70
2022-12-31T05:38:42.323Z,0.70
2022-12-31T05:41:08.708Z,0.70
2022-12-31T05:43:35.243Z,0.90
2022-12-31T05:46:03.093Z,0.90
2022-12-31T05:48:30.305Z,0.80
2022-12-31T05:50:57.225Z,0.50
2022-12-31T05:53:23.552Z,0.82
2022-12-31T05:55:49.850Z,0.82
2022-12-31T05:58:16.503Z,0.98
2022-12-31T06:00:44.214Z,1.10
2022-12-31T06:03:10.761Z,0.88
2022-12-31T06:05:42.625Z,1.02
2022-12-31T06:08:11.272Z,0.90
2022-12-31T06:10:38.625Z,1.30
2022-12-31T06:13:05.037Z,0.75
2022-12-31T06:15:31.465Z,0.90
2022-12-31T06:17:57.827Z,1.45
2022-12-31T06:20:24.204Z,1.13
2022-12-31T06:22:50.531Z,1.20
2022-12-31T06:25:16.832Z,0.80
2022-12-31T06:27:43.131Z,0.70
2022-12-31T06:30:10.564Z,1.10
2022-12-31T06:32:36.877Z,1.00
2022-12-31T06:35:03.422Z,1.10
2022-12-31T06:37:29.722Z,0.77
2022-12-31T06:39:56.028Z,1.10
2022-12-31T06:42:22.336Z,1.00
2022-12-31T06:44:48.632Z,0.90
2022-12-31T06:47:14.923Z,0.90
2022-12-31T06:49:41.235Z,0.93
2022-12-31T06:52:08.220Z,1.13
2022-12-31T06:54:34.813Z,0.80
2022-12-31T06:57:01.396Z,0.77
2022-12-31T06:59:29.426Z,0.90
2022-12-31T07:02:11.285Z,0.98
2022-12-31T07:04:55.057Z,1.02
2022-12-31T07:07:26.175Z,1.30
2022-12-31T07:12:48.660Z,1.10
2022-12-31T07:15:25.496Z,1.17
2022-12-31T07:18:04.906Z,0.70
2022-12-31T07:20:31.490Z,0.90
2022-12-31T07:22:58.025Z,0.98
2022-12-31T07:25:24.711Z,1.00
2022-12-31T07:28:14.877Z,0.82
2022-12-31T07:31:04.208Z,0.90
2022-12-31T07:33:30.535Z,1.20
2022-12-31T07:36:22.313Z,0.98
2022-12-31T07:39:15.265Z,1.17
2022-12-31T07:42:13.257Z,1.02
2022-12-31T07:44:56.130Z,0.85
2022-12-31T07:47:24.859Z,1.15
2022-12-31T07:49:52.189Z,0.90
2022-12-31T07:52:19.152Z,1.27
2022-12-31T07:54:45.894Z,1.10
2022-12-31T07:57:14.132Z,1.42
2022-12-31T07:59:48.317Z,1.00
2022-12-31T08:02:35.819Z,0.90
2022-12-31T08:05:14.504Z,1.00
2022-12-31T08:07:57.770Z,1.15
2022-12-31T08:10:30.589Z,1.05
2022-12-31T08:13:02.024Z,0.80
2022-12-31T08:15:30.702Z,0.90
2022-12-31T08:17:57.748Z,1.00
2022-12-31T08:20:25.677Z,0.90
2022-12-31T08:23:04.131Z,1.50
2022-12-31T08:26:18.058Z,1.35
2022-12-31T08:28:56.117Z,1.10
2022-12-31T08:31:44.950Z,0.75
2022-12-31T08:34:31.342Z,1.05
2022-12-31T08:37:16.005Z,1.25
2022-12-31T08:40:15.269Z,0.95
2022-12-31T08:43:03.466Z,1.30
2022-12-31T08:45:32.752Z,0.90
2022-12-31T08:48:23.940Z,0.88
2022-12-31T08:50:50.572Z,1.17
2022-12-31T08:53:17.174Z,0.98
2022-12-31T08:55:46.438Z,1.10
2022-12-31T08:58:34.117Z,0.90
2022-12-31T09:01:01.479Z,1.00
2022-12-31T09:03:56.844Z,1.17
2022-12-31T09:06:31.358Z,1.00
2022-12-31T09:09:21.615Z,0.90
2022-12-31T09:11:57.213Z,1.20
2022-12-31T09:14:47.279Z,1.00
2022-12-31T09:17:46.647Z,1.00
2022-12-31T09:20:22.752Z,1.50
2022-12-31T09:22:50.109Z,1.23
2022-12-31T09:25:18.764Z,1.15
2022-12-31T09:28:12.337Z,1.02
2022-12-31T09:30:56.872Z,1.15
2022-12-31T09:34:00.846Z,1.10
2022-12-31T09:36:36.266Z,1.00
2022-12-31T09:39:14.745Z,1.40
2022-12-31T09:42:18.772Z,1.17
2022-12-31T09:45:26.537Z,1.05
2022-12-31T09:48:22.149Z,1.23
2022-12-31T09:51:10.370Z,1.00
2022-12-31T09:54:00.801Z,0.90
2022-12-31T09:56:37.011Z,1.13
2022-12-31T09:59:24.286Z,1.33
2022-12-31T10:02:14.502Z,1.13
2022-12-31T10:05:03.462Z,1.35
2022-12-31T10:07:40.646Z,1.15
2022-12-31T10:10:30.477Z,1.30
2022-12-31T10:13:36.304Z,1.30
2022-12-31T10:16:12.414Z,1.23
2022-12-31T10:19:09.641Z,1.48
2022-12-31T10:22:10.761Z,1.30
2022-12-31T10:25:18.689Z,1.40
2022-12-31T10:28:00.057Z,1.50
2022-12-31T10:30:34.290Z,1.33
2022-12-31T10:33:41.284Z,1.73
2022-12-31T10:36:39.945Z,1.90
2022-12-31T10:39:24.288Z,4.22
2022-12-31T10:42:14.449Z,9.40
2022-12-31T10:45:26.285Z,12.88
2022-12-31T10:48:01.660Z,6.93
2022-12-31T10:50:56.053Z,7.05
2022-12-31T10:53:30.367Z,9.63
2022-12-31T10:56:07.796Z,8.65
2022-12-31T10:59:19.348Z,13.68
2022-12-31T11:01:48.721Z,7.43
2022-12-31T11:04:36.681Z,6.97
2022-12-31T11:07:21.390Z,10.02
2022-12-31T11:10:25.421Z,9.65
2022-12-31T11:13:23.385Z,10.13
2022-12-31T11:16:27.352Z,9.40
2022-12-31T11:19:07.156Z,13.05
2022-12-31T11:21:52.133Z,10.15
2022-12-31T11:24:49.513Z,19.75
2022-12-31T11:27:34.309Z,7.13
2022-12-31T11:30:13.760Z,7.10
2022-12-31T11:32:52.239Z,17.70
2022-12-31T11:35:49.641Z,7.60
2022-12-31T11:38:24.325Z,6.53
2022-12-31T11:41:11.429Z,4.20
2022-12-31T11:43:53.393Z,7.65
2022-12-31T11:47:07.164Z,4.45
2022-12-31T11:50:11.095Z,5.57
2022-12-31T11:52:49.662Z,3.40
2022-12-31T11:55:30.190Z,2.17
2022-12-31T11:58:01.719Z,1.85
2022-12-31T12:00:30.180Z,1.98
2022-12-31T12:03:01.084Z,2.35
2022-12-31T12:05:28.175Z,2.88
2022-12-31T12:07:55.051Z,1.73
2022-12-31T12:10:36.463Z,1.65
2022-12-31T12:13:16.427Z,1.92
2022-12-31T12:15:47.918Z,2.13
2022-12-31T12:18:30.083Z,1.92
2022-12-31T12:21:08.098Z,1.52
2022-12-31T12:23:34.539Z,1.77
2022-12-31T12:26:00.890Z,1.27
2022-12-31T12:28:30.000Z,1.25
2022-12-31T12:31:02.404Z,1.25
2022-12-31T12:33:40.775Z,1.27
2022-12-31T12:36:09.816Z,1.10
2022-12-31T12:38:37.028Z,1.40
2022-12-31T12:41:06.868Z,1.33
2022-12-31T12:43:36.106Z,1.50
2022-12-31T12:46:05.976Z,1.55
2022-12-31T12:48:41.212Z,1.42
2022-12-31T12:51:16.332Z,1.40
2022-12-31T12:54:08.021Z,1.25
2022-12-31T12:56:57.799Z,1.30
2022-12-31T12:59:56.023Z,1.40
2022-12-31T13:02:53.773Z,1.10
2022-12-31T13:05:32.444Z,1.20
2022-12-31T13:08:23.215Z,1.75
2022-12-31T13:11:15.598Z,1.52
2022-12-31T13:14:04.244Z,1.60
2022-12-31T13:16:37.870Z,1.00
2022-12-31T13:19:18.854Z,1.85
2022-12-31T13:22:04.380Z,1.50
2022-12-31T13:24:51.687Z,1.52
2022-12-31T13:27:33.885Z,1.10
2022-12-31T13:30:02.619Z,1.42
2022-12-31T13:32:42.246Z,1.23
2022-12-31T13:35:29.542Z,1.58
2022-12-31T13:38:22.616Z,1.73
2022-12-31T13:41:00.671Z,1.83
2022-12-31T13:43:50.638Z,2.20
2022-12-31T13:46:33.981Z,1.90
2022-12-31T13:49:04.817Z,2.08
2022-12-31T13:51:40.680Z,2.38
2022-12-31T13:54:21.803Z,2.45
2022-12-31T13:59:22.227Z,2.28
2022-12-31T14:02:01.174Z,2.30
2022-12-31T14:04:33.395Z,3.25
2022-12-31T14:07:10.235Z,3.95
2022-12-31T14:09:37.689Z,3.42
2022-12-31T14:12:43.922Z,4.15
2022-12-31T14:15:47.816Z,2.45
2022-12-31T14:18:39.376Z,2.20
2022-12-31T14:21:09.150Z,1.95
2022-12-31T14:24:06.584Z,2.75
2022-12-31T14:26:37.705Z,2.53
2022-12-31T14:31:47.855Z,2.05
2022-12-31T14:34:26.037Z,2.20
2022-12-31T14:37:04.082Z,2.60
2022-12-31T14:39:46.581Z,2.10
2022-12-31T14:42:28.508Z,3.03
2022-12-31T14:44:54.797Z,2.30
2022-12-31T14:47:32.862Z,2.22
2022-12-31T14:50:15.401Z,2.50
2022-12-31T14:52:51.086Z,2.75
2022-12-31T14:55:30.080Z,2.63
2022-12-31T14:58:26.547Z,2.17
2022-12-31T15:01:04.669Z,7.30
2022-12-31T15:03:31.074Z,7.07
2022-12-31T15:06:07.191Z,7.70
2022-12-31T15:09:07.924Z,9.68
2022-12-31T15:11:46.857Z,10.48
2022-12-31T15:14:42.061Z,6.20
2022-12-31T15:17:23.633Z,4.97
2022-12-31T15:20:17.430Z,4.40
2022-12-31T15:22:49.565Z,3.10
2022-12-31T15:25:40.732Z,2.50
2022-12-31T15:28:26.080Z,2.75
2022-12-31T15:30:55.885Z,2.38
2022-12-31T15:33:31.081Z,2.45
2022-12-31T15:35:58.097Z,2.47
2022-12-31T15:38:35.249Z,2.40
2022-12-31T15:41:18.194Z,2.70
2022-12-31T15:44:08.416Z,2.38
2022-12-31T15:46:40.551Z,2.60
2022-12-31T15:49:23.027Z,1.80
2022-12-31T15:52:01.280Z,2.35
2022-12-31T15:54:41.905Z,2.40
2022-12-31T15:57:16.993Z,2.17
2022-12-31T15:59:44.650Z,1.80
2022-12-31T16:02:24.420Z,1.80
2022-12-31T16:04:52.329Z,1.95
2022-12-31T16:07:18.869Z,2.03
2022-12-31T16:09:53.349Z,1.65
2022-12-31T16:12:27.763Z,1.98
2022-12-31T16:14:58.851Z,2.10
2022-12-31T16:17:34.452Z,2.35
2022-12-31T16:20:20.109Z,1.75
2022-12-31T16:22:52.867Z,1.83
2022-12-31T16:25:30.542Z,1.80
2022-12-31T16:27:58.121Z,2.00
2022-12-31T16:30:29.275Z,1.58
2022-12-31T16:35:31.019Z,1.65
2022-12-31T16:38:18.026Z,1.95
2022-12-31T16:41:02.599Z,2.25
2022-12-31T16:43:39.176Z,3.72
2022-12-31T16:46:14.259Z,3.75
2022-12-31T16:48:45.649Z,2.55
2022-12-31T16:51:19.730Z,2.22
2022-12-31T16:53:47.318Z,1.85
2022-12-31T16:56:23.140Z,2.00
2022-12-31T16:58:51.749Z,2.72
2022-12-31T17:01:23.557Z,3.40
2022-12-31T17:03:57.976Z,3.05
2022-12-31T17:06:26.965Z,2.60
2022-12-31T17:08:54.671Z,2.25
2022-12-31T17:11:28.585Z,2.50
2022-12-31T17:14:05.580Z,7.75
2022-12-31T17:16:34.015Z,2.78
2022-12-31T17:19:00.430Z,4.10
2022-12-31T17:21:29.865Z,2.25
2022-12-31T17:24:01.847Z,2.97
2022-12-31T17:26:31.070Z,2.95
2022-12-31T17:29:00.013Z,2.75
2022-12-31T17:31:32.397Z,3.58
2022-12-31T17:34:19.577Z,3.15
2022-12-31T17:37:11.572Z,3.08
2022-12-31T17:39:46.635Z,2.42
2022-12-31T17:42:22.372Z,2.30
2022-12-31T17:44:49.018Z,2.22
2022-12-31T17:47:15.372Z,2.10
2022-12-31T17:49:45.578Z,1.80
2022-12-31T17:52:14.344Z,2.17
2022-12-31T17:54:41.333Z,2.47
2022-12-31T17:57:21.464Z,3.13
2022-12-31T17:59:47.825Z,3.42
2022-12-31T18:02:14.269Z,2.60
2022-12-31T18:04:40.618Z,2.60
2022-12-31T18:07:06.925Z,2.25
2022-12-31T18:09:33.226Z,2.10
2022-12-31T18:12:02.006Z,2.35
2022-12-31T18:14:28.457Z,2.40
2022-12-31T18:16:54.761Z,3.90
2022-12-31T18:19:54.155Z,3.70
2022-12-31T18:22:13.117Z,3.10
2022-12-31T18:24:39.579Z,2.67
2022-12-31T18:27:15.041Z,2.22
2022-12-31T18:29:41.401Z,2.13
2022-12-31T18:32:19.175Z,1.73
2022-12-31T18:34:45.529Z,2.08
2022-12-31T18:37:17.884Z,1.98
2022-12-31T18:39:48.008Z,2.30
2022-12-31T18:42:16.520Z,1.70
2022-12-31T18:44:43.943Z,1.90
2022-12-31T18:47:15.836Z,2.70
2022-12-31T18:49:42.924Z,1.73
2022-12-31T18:52:14.144Z,2.55
2022-12-31T18:54:40.949Z,2.42
2022-12-31T18:57:07.265Z,1.90
2022-12-31T18:59:33.572Z,2.25
2022-12-31T19:02:00.080Z,2.33
2022-12-31T19:04:28.333Z,2.33
2022-12-31T19:06:55.254Z,2.10
2022-12-31T19:12:12.534Z,2.95
2022-12-31T19:14:38.870Z,2.15
2022-12-31T19:19:30.473Z,2.20
2022-12-31T19:21:56.875Z,2.50
2022-12-31T19:24:27.340Z,2.13
2022-12-31T19:26:54.432Z,2.03
2022-12-31T19:29:25.939Z,1.95
2022-12-31T19:31:52.500Z,2.95
2022-12-31T19:34:18.861Z,2.28
2022-12-31T19:36:45.438Z,2.20
2022-12-31T19:39:17.596Z,1.77
2022-12-31T19:41:44.563Z,1.80
2022-12-31T19:44:16.257Z,2.25
2022-12-31T19:46:42.966Z,2.38
2022-12-31T19:49:13.188Z,1.98
2022-12-31T19:51:39.783Z,2.13
2022-12-31T19:54:06.764Z,1.80
2022-12-31T19:56:33.098Z,2.05
2022-12-31T19:59:07.075Z,1.83
2022-12-31T20:01:33.785Z,2.42
2022-12-31T20:04:00.232Z,2.10
2022-12-31T20:06:26.564Z,1.90
2022-12-31T20:08:52.877Z,1.80
2022-12-31T20:11:21.361Z,2.08
2022-12-31T20:13:49.099Z,1.95
2022-12-31T20:16:18.122Z,1.80
2022-12-31T20:18:46.115Z,1.95
2022-12-31T20:21:21.547Z,2.17
2022-12-31T20:23:49.434Z,1.77
2022-12-31T20:26:16.995Z,1.92
2022-12-31T20:28:43.386Z,2.10
2022-12-31T20:31:12.784Z,2.38
2022-12-31T20:33:39.529Z,1.98
2022-12-31T20:36:08.840Z,1.90
2022-12-31T20:38:35.271Z,1.83
2022-12-31T20:41:10.818Z,2.20
2022-12-31T20:43:37.203Z,1.67
2022-12-31T20:46:15.665Z,2.20
2022-12-31T20:48:43.716Z,2.05
2022-12-31T20:51:10.216Z,2.10
2022-12-31T20:53:36.523Z,2.10
2022-12-31T20:56:07.362Z,1.65
2022-12-31T20:58:34.153Z,2.20
2022-12-31T21:01:00.585Z,2.13
2022-12-31T21:06:14.674Z,1.98
2022-12-31T21:08:41.821Z,1.85
2022-12-31T21:11:28.769Z,1.70
2022-12-31T21:13:56.610Z,1.77
2022-12-31T21:16:23.056Z,1.90
2022-12-31T21:18:49.363Z,2.08
2022-12-31T21:21:16.059Z,2.15
2022-12-31T21:23:42.420Z,1.95
2022-12-31T21:26:08.741Z,2.63
2022-12-31T21:28:35.175Z,2.38
2022-12-31T21:31:04.017Z,2.00
2022-12-31T21:33:30.484Z,2.05
2022-12-31T21:36:01.191Z,2.28
2022-12-31T21:38:30.878Z,2.10
2022-12-31T21:41:02.711Z,1.80
2022-12-31T21:43:29.134Z,1.90
2022-12-31T21:46:06.767Z,1.98
2022-12-31T21:48:33.708Z,1.90
2022-12-31T21:51:14.006Z,1.92
2022-12-31T21:53:40.501Z,2.77
2022-12-31T21:56:08.634Z,2.85
2022-12-31T21:58:39.700Z,2.38
2022-12-31T22:01:25.785Z,2.75
2022-12-31T22:03:52.444Z,2.15
2022-12-31T22:06:21.640Z,2.58
2022-12-31T22:08:53.669Z,3.38
2022-12-31T22:11:22.323Z,3.95
2022-12-31T22:13:49.184Z,3.40
2022-12-31T22:16:16.933Z,4.03
2022-12-31T22:18:44.053Z,3.58
2022-12-31T22:21:21.760Z,2.97
2022-12-31T22:23:53.837Z,2.67
2022-12-31T22:26:23.283Z,8.23
2022-12-31T22:28:50.310Z,10.40
2022-12-31T22:31:21.430Z,9.35
2022-12-31T22:33:48.083Z,12.48
2022-12-31T22:36:17.324Z,13.48
2022-12-31T22:38:44.401Z,16.92
2022-12-31T22:41:13.695Z,14.40
2022-12-31T22:43:43.357Z,15.77
2022-12-31T22:46:18.352Z,15.02
2022-12-31T22:48:45.392Z,16.17
2022-12-31T22:51:12.958Z,25.75
2022-12-31T22:53:41.043Z,36.60
2022-12-31T22:56:07.914Z,30.30
2022-12-31T22:58:34.685Z,17.75
2022-12-31T23:01:05.888Z,12.75
2022-12-31T23:03:32.799Z,12.02
2022-12-31T23:05:59.226Z,15.43
2022-12-31T23:08:25.711Z,30.55
2022-12-31T23:10:59.532Z,32.85
2022-12-31T23:13:53.517Z,43.55
2022-12-31T23:16:38.787Z,52.13
2022-12-31T23:19:25.104Z,51.20
2022-12-31T23:22:10.230Z,66.22
2022-12-31T23:24:36.804Z,88.78
2022-12-31T23:27:03.344Z,37.83
2022-12-31T23:29:29.668Z,37.05
2022-12-31T23:31:56.086Z,23.92
2022-12-31T23:34:22.744Z,16.02
2022-12-31T23:36:49.085Z,14.93
2022-12-31T23:39:15.451Z,12.73
2022-12-31T23:41:41.834Z,15.15
2022-12-31T23:44:08.241Z,16.63
2022-12-31T23:46:34.606Z,18.48
2022-12-31T23:49:00.921Z,16.38
2022-12-31T23:51:27.216Z,14.77
2022-12-31T23:53:53.517Z,15.70
2022-12-31T23:56:23.557Z,13.38
2022-12-31T23:58:55.176Z,14.23
